sensor_id;sensor_type;location;lat;lon;timestamp;P1;durP1;ratioP1;P2;durP2;ratioP2
50968;SDS011;36982;51.474;7.228;2022-08-01T00:01:04;16.83;;;14.23;;
50968;SDS011;36982;51.474;7.228;2022-08-01T00:03:30;16.15;;;14.32;;
50968;SDS011;36982;51.474;7.228;2022-08-01T00:05:56;15.88;;;12.80;;
50968;SDS011;36982;51.474;7.228;2022-08-01T00:08:21;18.12;;;13.93;;
50968;SDS011;36982;51.474;7.228;2022-08-01T00:10:47;14.65;;;13.13;;
50968;SDS011;36982;51.474;7.228;2022-08-01T00:13:12;17.48;;;13.55;;
50968;SDS011;36982;51.474;7.228;2022-08-01T00:15:38;16.98;;;13.32;;
50968;SDS011;36982;51.474;7.228;2022-08-01T00:18:04;17.50;;;14.45;;
50968;SDS011;36982;51.474;7.228;2022-08-01T00:20:29;15.93;;;14.23;;
50968;SDS011;36982;51.474;7.228;2022-08-01T00:22:55;19.02;;;14.90;;
50968;SDS011;36982;51.474;7.228;2022-08-01T00:25:20;16.48;;;14.77;;
50968;SDS011;36982;51.474;7.228;2022-08-01T00:27:46;18.42;;;15.07;;
50968;SDS011;36982;51.474;7.228;2022-08-01T00:30:11;17.67;;;14.82;;
50968;SDS011;36982;51.474;7.228;2022-08-01T00:32:37;20.12;;;14.85;;
50968;SDS011;36982;51.474;7.228;2022-08-01T00:35:03;23.40;;;17.85;;
50968;SDS011;36982;51.474;7.228;2022-08-01T00:37:28;21.20;;;18.30;;
50968;SDS011;36982;51.474;7.228;2022-08-01T00:39:54;22.37;;;19.73;;
50968;SDS011;36982;51.474;7.228;2022-08-01T00:42:20;25.00;;;19.75;;
50968;SDS011;36982;51.474;7.228;2022-08-01T00:44:46;25.02;;;20.80;;
50968;SDS011;36982;51.474;7.228;2022-08-01T00:47:11;26.50;;;20.65;;
50968;SDS011;36982;51.474;7.228;2022-08-01T00:49:37;25.23;;;21.08;;
50968;SDS011;36982;51.474;7.228;2022-08-01T00:52:03;26.83;;;21.12;;
50968;SDS011;36982;51.474;7.228;2022-08-01T00:54:30;26.87;;;22.48;;
50968;SDS011;36982;51.474;7.228;2022-08-01T00:56:57;29.25;;;22.60;;
50968;SDS011;36982;51.474;7.228;2022-08-01T00:59:23;30.93;;;24.03;;
50968;SDS011;36982;51.474;7.228;2022-08-01T01:01:50;29.92;;;24.17;;
50968;SDS011;36982;51.474;7.228;2022-08-01T01:04:16;29.85;;;23.38;;
50968;SDS011;36982;51.474;7.228;2022-08-01T01:12:22;25.70;;;20.98;;
50968;SDS011;36982;51.474;7.228;2022-08-01T01:17:37;29.58;;;23.48;;
50968;SDS011;36982;51.474;7.228;2022-08-01T01:20:07;28.62;;;22.02;;
50968;SDS011;36982;51.474;7.228;2022-08-01T01:30:55;28.73;;;23.02;;
50968;SDS011;36982;51.474;7.228;2022-08-01T01:33:22;28.60;;;22.48;;
50968;SDS011;36982;51.474;7.228;2022-08-01T01:35:51;29.80;;;22.45;;
50968;SDS011;36982;51.474;7.228;2022-08-01T01:38:23;31.77;;;23.20;;
50968;SDS011;36982;51.474;7.228;2022-08-01T01:40:51;26.33;;;22.45;;
50968;SDS011;36982;51.474;7.228;2022-08-01T01:43:18;29.05;;;22.27;;
50968;SDS011;36982;51.474;7.228;2022-08-01T01:45:45;29.95;;;22.17;;
50968;SDS011;36982;51.474;7.228;2022-08-01T01:48:13;28.15;;;21.27;;
50968;SDS011;36982;51.474;7.228;2022-08-01T01:50:43;27.87;;;22.37;;
50968;SDS011;36982;51.474;7.228;2022-08-01T01:53:12;28.67;;;21.25;;
50968;SDS011;36982;51.474;7.228;2022-08-01T01:55:41;27.73;;;20.60;;
50968;SDS011;36982;51.474;7.228;2022-08-01T01:58:09;27.40;;;19.98;;
50968;SDS011;36982;51.474;7.228;2022-08-01T02:00:38;27.13;;;20.60;;
50968;SDS011;36982;51.474;7.228;2022-08-01T02:03:06;30.48;;;20.27;;
50968;SDS011;36982;51.474;7.228;2022-08-01T02:05:34;27.90;;;20.55;;
50968;SDS011;36982;51.474;7.228;2022-08-01T02:08:01;29.63;;;21.15;;
50968;SDS011;36982;51.474;7.228;2022-08-01T02:10:29;27.23;;;21.12;;
50968;SDS011;36982;51.474;7.228;2022-08-01T02:13:01;30.30;;;19.75;;
50968;SDS011;36982;51.474;7.228;2022-08-01T02:15:29;27.95;;;20.60;;
50968;SDS011;36982;51.474;7.228;2022-08-01T02:17:56;29.40;;;20.67;;
50968;SDS011;36982;51.474;7.228;2022-08-01T02:20:22;26.30;;;19.65;;
50968;SDS011;36982;51.474;7.228;2022-08-01T02:22:53;27.60;;;21.02;;
50968;SDS011;36982;51.474;7.228;2022-08-01T02:25:39;32.80;;;23.02;;
50968;SDS011;36982;51.474;7.228;2022-08-01T02:28:23;31.60;;;22.75;;
50968;SDS011;36982;51.474;7.228;2022-08-01T02:30:54;32.40;;;22.35;;
50968;SDS011;36982;51.474;7.228;2022-08-01T02:33:27;32.15;;;22.62;;
50968;SDS011;36982;51.474;7.228;2022-08-01T02:36:03;32.42;;;21.60;;
50968;SDS011;36982;51.474;7.228;2022-08-01T02:38:31;35.33;;;22.70;;
50968;SDS011;36982;51.474;7.228;2022-08-01T02:41:00;29.23;;;20.95;;
50968;SDS011;36982;51.474;7.228;2022-08-01T02:43:33;30.77;;;22.05;;
50968;SDS011;36982;51.474;7.228;2022-08-01T02:46:02;29.05;;;21.02;;
50968;SDS011;36982;51.474;7.228;2022-08-01T02:48:30;29.08;;;21.17;;
50968;SDS011;36982;51.474;7.228;2022-08-01T02:50:59;27.95;;;20.90;;
50968;SDS011;36982;51.474;7.228;2022-08-01T02:53:27;31.55;;;21.33;;
50968;SDS011;36982;51.474;7.228;2022-08-01T02:55:56;33.03;;;22.15;;
50968;SDS011;36982;51.474;7.228;2022-08-01T02:58:23;32.17;;;21.60;;
50968;SDS011;36982;51.474;7.228;2022-08-01T03:00:50;33.28;;;22.40;;
50968;SDS011;36982;51.474;7.228;2022-08-01T03:03:17;32.95;;;21.40;;
50968;SDS011;36982;51.474;7.228;2022-08-01T03:05:43;34.08;;;22.17;;
50968;SDS011;36982;51.474;7.228;2022-08-01T03:08:10;32.50;;;21.15;;
50968;SDS011;36982;51.474;7.228;2022-08-01T03:10:39;30.52;;;22.08;;
50968;SDS011;36982;51.474;7.228;2022-08-01T03:13:07;31.10;;;21.20;;
50968;SDS011;36982;51.474;7.228;2022-08-01T03:15:36;32.05;;;21.27;;
50968;SDS011;36982;51.474;7.228;2022-08-01T03:18:04;32.92;;;22.10;;
50968;SDS011;36982;51.474;7.228;2022-08-01T03:20:33;35.33;;;22.27;;
50968;SDS011;36982;51.474;7.228;2022-08-01T03:23:00;32.95;;;21.90;;
50968;SDS011;36982;51.474;7.228;2022-08-01T03:25:29;34.75;;;22.52;;
50968;SDS011;36982;51.474;7.228;2022-08-01T03:27:58;32.47;;;22.25;;
50968;SDS011;36982;51.474;7.228;2022-08-01T03:30:27;36.22;;;24.80;;
50968;SDS011;36982;51.474;7.228;2022-08-01T03:32:54;35.58;;;24.30;;
50968;SDS011;36982;51.474;7.228;2022-08-01T03:35:21;35.13;;;23.87;;
50968;SDS011;36982;51.474;7.228;2022-08-01T03:37:49;33.80;;;23.65;;
50968;SDS011;36982;51.474;7.228;2022-08-01T03:40:23;34.30;;;24.00;;
50968;SDS011;36982;51.474;7.228;2022-08-01T03:42:54;35.65;;;23.92;;
50968;SDS011;36982;51.474;7.228;2022-08-01T03:45:25;32.38;;;23.87;;
50968;SDS011;36982;51.474;7.228;2022-08-01T03:47:56;38.45;;;23.20;;
50968;SDS011;36982;51.474;7.228;2022-08-01T03:50:25;34.05;;;22.83;;
50968;SDS011;36982;51.474;7.228;2022-08-01T03:52:53;35.72;;;23.40;;
50968;SDS011;36982;51.474;7.228;2022-08-01T03:55:22;34.30;;;23.48;;
50968;SDS011;36982;51.474;7.228;2022-08-01T03:57:49;34.30;;;24.10;;
50968;SDS011;36982;51.474;7.228;2022-08-01T04:00:16;34.17;;;23.48;;
50968;SDS011;36982;51.474;7.228;2022-08-01T04:02:44;31.77;;;22.10;;
50968;SDS011;36982;51.474;7.228;2022-08-01T04:05:14;29.92;;;21.65;;
50968;SDS011;36982;51.474;7.228;2022-08-01T04:07:55;30.88;;;20.17;;
50968;SDS011;36982;51.474;7.228;2022-08-01T04:10:24;31.05;;;20.27;;
50968;SDS011;36982;51.474;7.228;2022-08-01T04:12:50;25.85;;;18.80;;
50968;SDS011;36982;51.474;7.228;2022-08-01T04:15:16;25.67;;;19.40;;
50968;SDS011;36982;51.474;7.228;2022-08-01T04:17:42;26.10;;;19.27;;
50968;SDS011;36982;51.474;7.228;2022-08-01T04:20:09;25.33;;;18.95;;
50968;SDS011;36982;51.474;7.228;2022-08-01T04:22:36;26.35;;;19.10;;
50968;SDS011;36982;51.474;7.228;2022-08-01T04:25:02;30.15;;;19.75;;
50968;SDS011;36982;51.474;7.228;2022-08-01T04:27:35;29.48;;;18.70;;
50968;SDS011;36982;51.474;7.228;2022-08-01T04:30:04;28.10;;;19.12;;
50968;SDS011;36982;51.474;7.228;2022-08-01T04:32:31;26.52;;;18.20;;
50968;SDS011;36982;51.474;7.228;2022-08-01T04:35:00;23.58;;;17.25;;
50968;SDS011;36982;51.474;7.228;2022-08-01T04:37:29;24.30;;;16.95;;
50968;SDS011;36982;51.474;7.228;2022-08-01T04:39:56;20.73;;;16.17;;
50968;SDS011;36982;51.474;7.228;2022-08-01T04:42:23;20.25;;;15.00;;
50968;SDS011;36982;51.474;7.228;2022-08-01T04:44:49;23.70;;;14.70;;
50968;SDS011;36982;51.474;7.228;2022-08-01T04:47:15;19.42;;;14.57;;
50968;SDS011;36982;51.474;7.228;2022-08-01T04:49:41;20.83;;;14.35;;
50968;SDS011;36982;51.474;7.228;2022-08-01T04:52:08;21.48;;;15.18;;
50968;SDS011;36982;51.474;7.228;2022-08-01T04:54:35;19.87;;;14.85;;
50968;SDS011;36982;51.474;7.228;2022-08-01T04:57:03;23.00;;;15.23;;
50968;SDS011;36982;51.474;7.228;2022-08-01T04:59:30;21.17;;;14.73;;
50968;SDS011;36982;51.474;7.228;2022-08-01T05:02:06;18.37;;;13.25;;
50968;SDS011;36982;51.474;7.228;2022-08-01T05:04:37;19.35;;;14.07;;
50968;SDS011;36982;51.474;7.228;2022-08-01T05:07:04;19.33;;;13.88;;
50968;SDS011;36982;51.474;7.228;2022-08-01T05:09:30;19.83;;;14.63;;
50968;SDS011;36982;51.474;7.228;2022-08-01T05:12:00;17.33;;;13.90;;
50968;SDS011;36982;51.474;7.228;2022-08-01T05:14:26;18.20;;;13.85;;
50968;SDS011;36982;51.474;7.228;2022-08-01T05:16:53;17.70;;;13.70;;
50968;SDS011;36982;51.474;7.228;2022-08-01T05:19:19;20.17;;;14.35;;
50968;SDS011;36982;51.474;7.228;2022-08-01T05:21:46;17.77;;;14.57;;
50968;SDS011;36982;51.474;7.228;2022-08-01T05:24:12;23.42;;;15.88;;
50968;SDS011;36982;51.474;7.228;2022-08-01T05:26:38;22.13;;;15.48;;
50968;SDS011;36982;51.474;7.228;2022-08-01T05:29:04;19.02;;;14.68;;
50968;SDS011;36982;51.474;7.228;2022-08-01T05:31:30;19.98;;;14.90;;
50968;SDS011;36982;51.474;7.228;2022-08-01T05:33:59;17.67;;;14.25;;
50968;SDS011;36982;51.474;7.228;2022-08-01T05:36:25;18.45;;;13.73;;
50968;SDS011;36982;51.474;7.228;2022-08-01T05:38:52;16.98;;;12.63;;
50968;SDS011;36982;51.474;7.228;2022-08-01T05:41:18;20.12;;;14.07;;
50968;SDS011;36982;51.474;7.228;2022-08-01T05:43:43;17.98;;;13.20;;
50968;SDS011;36982;51.474;7.228;2022-08-01T05:46:09;19.15;;;14.82;;
50968;SDS011;36982;51.474;7.228;2022-08-01T05:48:35;18.48;;;13.40;;
50968;SDS011;36982;51.474;7.228;2022-08-01T05:51:01;21.95;;;14.18;;
50968;SDS011;36982;51.474;7.228;2022-08-01T05:53:27;19.25;;;13.68;;
50968;SDS011;36982;51.474;7.228;2022-08-01T05:55:53;19.55;;;14.70;;
50968;SDS011;36982;51.474;7.228;2022-08-01T05:58:22;16.27;;;12.88;;
50968;SDS011;36982;51.474;7.228;2022-08-01T06:00:48;18.12;;;13.00;;
50968;SDS011;36982;51.474;7.228;2022-08-01T06:03:13;16.60;;;12.77;;
50968;SDS011;36982;51.474;7.228;2022-08-01T06:05:39;16.67;;;12.43;;
50968;SDS011;36982;51.474;7.228;2022-08-01T06:08:05;17.62;;;12.85;;
50968;SDS011;36982;51.474;7.228;2022-08-01T06:10:31;18.90;;;13.75;;
50968;SDS011;36982;51.474;7.228;2022-08-01T06:12:56;19.83;;;14.32;;
50968;SDS011;36982;51.474;7.228;2022-08-01T06:15:22;18.85;;;14.18;;
50968;SDS011;36982;51.474;7.228;2022-08-01T06:17:48;17.87;;;13.20;;
50968;SDS011;36982;51.474;7.228;2022-08-01T06:20:14;18.98;;;14.13;;
50968;SDS011;36982;51.474;7.228;2022-08-01T06:22:43;16.58;;;12.43;;
50968;SDS011;36982;51.474;7.228;2022-08-01T06:25:09;16.25;;;12.68;;
50968;SDS011;36982;51.474;7.228;2022-08-01T06:27:34;16.50;;;12.68;;
50968;SDS011;36982;51.474;7.228;2022-08-01T06:30:03;19.50;;;13.10;;
50968;SDS011;36982;51.474;7.228;2022-08-01T06:32:32;16.02;;;12.13;;
50968;SDS011;36982;51.474;7.228;2022-08-01T06:34:58;17.65;;;13.10;;
50968;SDS011;36982;51.474;7.228;2022-08-01T06:37:28;15.88;;;12.60;;
50968;SDS011;36982;51.474;7.228;2022-08-01T06:40:07;17.12;;;13.95;;
50968;SDS011;36982;51.474;7.228;2022-08-01T06:42:34;17.20;;;13.27;;
50968;SDS011;36982;51.474;7.228;2022-08-01T06:45:07;15.55;;;11.90;;
50968;SDS011;36982;51.474;7.228;2022-08-01T06:47:37;17.20;;;13.48;;
50968;SDS011;36982;51.474;7.228;2022-08-01T06:50:04;19.83;;;13.85;;
50968;SDS011;36982;51.474;7.228;2022-08-01T06:52:38;16.77;;;12.10;;
50968;SDS011;36982;51.474;7.228;2022-08-01T06:55:04;16.58;;;13.07;;
50968;SDS011;36982;51.474;7.228;2022-08-01T06:57:30;14.85;;;11.45;;
50968;SDS011;36982;51.474;7.228;2022-08-01T06:59:56;15.15;;;12.07;;
50968;SDS011;36982;51.474;7.228;2022-08-01T07:02:22;14.20;;;10.18;;
50968;SDS011;36982;51.474;7.228;2022-08-01T07:04:48;11.82;;;10.15;;
50968;SDS011;36982;51.474;7.228;2022-08-01T07:07:13;16.20;;;11.70;;
50968;SDS011;36982;51.474;7.228;2022-08-01T07:09:39;13.50;;;9.82;;
50968;SDS011;36982;51.474;7.228;2022-08-01T07:12:07;13.30;;;10.40;;
50968;SDS011;36982;51.474;7.228;2022-08-01T07:14:33;12.23;;;9.90;;
50968;SDS011;36982;51.474;7.228;2022-08-01T07:16:58;12.13;;;10.00;;
50968;SDS011;36982;51.474;7.228;2022-08-01T07:19:24;10.32;;;7.97;;
50968;SDS011;36982;51.474;7.228;2022-08-01T07:21:50;9.77;;;8.27;;
50968;SDS011;36982;51.474;7.228;2022-08-01T07:24:17;12.10;;;9.80;;
50968;SDS011;36982;51.474;7.228;2022-08-01T07:26:43;12.77;;;9.50;;
50968;SDS011;36982;51.474;7.228;2022-08-01T07:29:11;8.43;;;6.90;;
50968;SDS011;36982;51.474;7.228;2022-08-01T07:31:36;7.85;;;6.85;;
50968;SDS011;36982;51.474;7.228;2022-08-01T07:34:03;9.10;;;6.95;;
50968;SDS011;36982;51.474;7.228;2022-08-01T07:36:29;9.20;;;6.10;;
50968;SDS011;36982;51.474;7.228;2022-08-01T07:38:54;6.45;;;5.72;;
50968;SDS011;36982;51.474;7.228;2022-08-01T07:41:20;7.75;;;5.75;;
50968;SDS011;36982;51.474;7.228;2022-08-01T07:43:46;10.70;;;6.03;;
50968;SDS011;36982;51.474;7.228;2022-08-01T07:46:13;5.62;;;4.50;;
50968;SDS011;36982;51.474;7.228;2022-08-01T07:48:40;6.43;;;4.55;;
50968;SDS011;36982;51.474;7.228;2022-08-01T07:51:05;4.28;;;3.75;;
50968;SDS011;36982;51.474;7.228;2022-08-01T07:53:31;6.25;;;4.00;;
50968;SDS011;36982;51.474;7.228;2022-08-01T07:55:57;8.10;;;5.15;;
50968;SDS011;36982;51.474;7.228;2022-08-01T07:58:22;6.10;;;3.60;;
50968;SDS011;36982;51.474;7.228;2022-08-01T08:00:48;3.22;;;2.92;;
50968;SDS011;36982;51.474;7.228;2022-08-01T08:03:14;4.50;;;3.75;;
50968;SDS011;36982;51.474;7.228;2022-08-01T08:05:40;3.92;;;3.15;;
50968;SDS011;36982;51.474;7.228;2022-08-01T08:08:06;3.62;;;2.72;;
50968;SDS011;36982;51.474;7.228;2022-08-01T08:10:33;5.30;;;3.10;;
50968;SDS011;36982;51.474;7.228;2022-08-01T08:12:58;5.45;;;4.15;;
50968;SDS011;36982;51.474;7.228;2022-08-01T08:15:25;9.25;;;4.20;;
50968;SDS011;36982;51.474;7.228;2022-08-01T08:17:51;4.03;;;3.00;;
50968;SDS011;36982;51.474;7.228;2022-08-01T08:20:17;3.00;;;2.67;;
50968;SDS011;36982;51.474;7.228;2022-08-01T08:22:42;5.35;;;3.75;;
50968;SDS011;36982;51.474;7.228;2022-08-01T08:25:08;3.30;;;2.62;;
50968;SDS011;36982;51.474;7.228;2022-08-01T08:27:35;2.47;;;2.28;;
50968;SDS011;36982;51.474;7.228;2022-08-01T08:30:01;2.92;;;2.62;;
50968;SDS011;36982;51.474;7.228;2022-08-01T08:32:28;3.20;;;2.55;;
50968;SDS011;36982;51.474;7.228;2022-08-01T08:34:53;4.03;;;2.65;;
50968;SDS011;36982;51.474;7.228;2022-08-01T08:37:19;3.25;;;2.47;;
50968;SDS011;36982;51.474;7.228;2022-08-01T08:39:44;3.08;;;2.40;;
50968;SDS011;36982;51.474;7.228;2022-08-01T08:42:10;2.62;;;2.30;;
50968;SDS011;36982;51.474;7.228;2022-08-01T08:44:37;2.72;;;1.95;;
50968;SDS011;36982;51.474;7.228;2022-08-01T08:47:03;3.03;;;1.67;;
50968;SDS011;36982;51.474;7.228;2022-08-01T08:49:32;2.37;;;1.67;;
50968;SDS011;36982;51.474;7.228;2022-08-01T08:51:59;2.67;;;1.90;;
50968;SDS011;36982;51.474;7.228;2022-08-01T08:54:26;3.35;;;2.00;;
50968;SDS011;36982;51.474;7.228;2022-08-01T08:56:53;5.07;;;2.35;;
50968;SDS011;36982;51.474;7.228;2022-08-01T08:59:21;3.05;;;1.98;;
50968;SDS011;36982;51.474;7.228;2022-08-01T09:01:49;3.55;;;2.53;;
50968;SDS011;36982;51.474;7.228;2022-08-01T09:04:14;4.53;;;2.80;;
50968;SDS011;36982;51.474;7.228;2022-08-01T09:06:40;2.35;;;2.05;;
50968;SDS011;36982;51.474;7.228;2022-08-01T09:09:07;2.10;;;1.90;;
50968;SDS011;36982;51.474;7.228;2022-08-01T09:11:33;3.22;;;1.87;;
50968;SDS011;36982;51.474;7.228;2022-08-01T09:16:30;2.50;;;1.40;;
50968;SDS011;36982;51.474;7.228;2022-08-01T09:19:10;1.65;;;1.55;;
50968;SDS011;36982;51.474;7.228;2022-08-01T09:21:38;1.92;;;1.73;;
50968;SDS011;36982;51.474;7.228;2022-08-01T09:24:12;2.42;;;2.08;;
50968;SDS011;36982;51.474;7.228;2022-08-01T09:26:39;1.90;;;1.80;;
50968;SDS011;36982;51.474;7.228;2022-08-01T09:29:05;2.58;;;2.37;;
50968;SDS011;36982;51.474;7.228;2022-08-01T09:31:42;3.10;;;2.10;;
50968;SDS011;36982;51.474;7.228;2022-08-01T09:34:09;1.77;;;1.67;;
50968;SDS011;36982;51.474;7.228;2022-08-01T09:39:20;3.30;;;1.90;;
50968;SDS011;36982;51.474;7.228;2022-08-01T09:41:56;2.37;;;1.80;;
50968;SDS011;36982;51.474;7.228;2022-08-01T09:44:39;1.80;;;1.60;;
50968;SDS011;36982;51.474;7.228;2022-08-01T09:47:06;1.87;;;1.73;;
50968;SDS011;36982;51.474;7.228;2022-08-01T09:49:36;3.25;;;1.75;;
50968;SDS011;36982;51.474;7.228;2022-08-01T09:52:18;1.87;;;1.60;;
50968;SDS011;36982;51.474;7.228;2022-08-01T09:54:55;1.75;;;1.65;;
50968;SDS011;36982;51.474;7.228;2022-08-01T09:57:21;1.40;;;1.20;;
50968;SDS011;36982;51.474;7.228;2022-08-01T09:59:49;2.00;;;1.90;;
50968;SDS011;36982;51.474;7.228;2022-08-01T10:05:11;1.33;;;1.23;;
50968;SDS011;36982;51.474;7.228;2022-08-01T10:10:27;3.00;;;1.50;;
50968;SDS011;36982;51.474;7.228;2022-08-01T10:12:53;2.62;;;2.03;;
50968;SDS011;36982;51.474;7.228;2022-08-01T10:15:21;3.05;;;1.50;;
50968;SDS011;36982;51.474;7.228;2022-08-01T10:17:55;1.98;;;1.70;;
50968;SDS011;36982;51.474;7.228;2022-08-01T10:20:23;2.50;;;1.50;;
50968;SDS011;36982;51.474;7.228;2022-08-01T10:22:51;1.58;;;1.48;;
50968;SDS011;36982;51.474;7.228;2022-08-01T10:25:18;2.40;;;2.03;;
50968;SDS011;36982;51.474;7.228;2022-08-01T10:27:45;2.00;;;1.37;;
50968;SDS011;36982;51.474;7.228;2022-08-01T10:30:19;2.55;;;1.60;;
50968;SDS011;36982;51.474;7.228;2022-08-01T10:32:46;2.28;;;1.25;;
50968;SDS011;36982;51.474;7.228;2022-08-01T10:35:12;1.55;;;1.30;;
50968;SDS011;36982;51.474;7.228;2022-08-01T10:37:42;2.95;;;2.28;;
50968;SDS011;36982;51.474;7.228;2022-08-01T10:40:11;4.93;;;2.03;;
50968;SDS011;36982;51.474;7.228;2022-08-01T10:42:39;1.95;;;1.62;;
50968;SDS011;36982;51.474;7.228;2022-08-01T10:45:06;1.65;;;1.40;;
50968;SDS011;36982;51.474;7.228;2022-08-01T10:47:37;2.42;;;1.90;;
50968;SDS011;36982;51.474;7.228;2022-08-01T10:50:21;1.58;;;1.48;;
50968;SDS011;36982;51.474;7.228;2022-08-01T10:58:28;3.03;;;1.67;;
50968;SDS011;36982;51.474;7.228;2022-08-01T11:03:43;2.45;;;1.20;;
50968;SDS011;36982;51.474;7.228;2022-08-01T11:06:16;1.42;;;1.10;;
50968;SDS011;36982;51.474;7.228;2022-08-01T11:08:50;1.83;;;1.10;;
50968;SDS011;36982;51.474;7.228;2022-08-01T11:11:17;2.28;;;2.08;;
50968;SDS011;36982;51.474;7.228;2022-08-01T11:16:32;2.25;;;1.17;;
50968;SDS011;36982;51.474;7.228;2022-08-01T11:19:02;1.20;;;1.10;;
50968;SDS011;36982;51.474;7.228;2022-08-01T11:25:02;1.87;;;1.50;;
50968;SDS011;36982;51.474;7.228;2022-08-01T11:30:21;0.85;;;0.80;;
50968;SDS011;36982;51.474;7.228;2022-08-01T11:35:31;1.65;;;0.82;;
50968;SDS011;36982;51.474;7.228;2022-08-01T11:37:57;1.02;;;0.70;;
50968;SDS011;36982;51.474;7.228;2022-08-01T11:43:56;1.10;;;0.85;;
50968;SDS011;36982;51.474;7.228;2022-08-01T11:51:53;1.25;;;0.75;;
50968;SDS011;36982;51.474;7.228;2022-08-01T11:54:26;1.30;;;1.05;;
50968;SDS011;36982;51.474;7.228;2022-08-01T11:56:57;1.83;;;0.80;;
50968;SDS011;36982;51.474;7.228;2022-08-01T11:59:25;0.80;;;0.80;;
50968;SDS011;36982;51.474;7.228;2022-08-01T12:01:51;1.02;;;0.93;;
50968;SDS011;36982;51.474;7.228;2022-08-01T12:04:17;0.80;;;0.80;;
50968;SDS011;36982;51.474;7.228;2022-08-01T12:06:43;0.98;;;0.90;;
50968;SDS011;36982;51.474;7.228;2022-08-01T12:09:19;0.98;;;0.90;;
50968;SDS011;36982;51.474;7.228;2022-08-01T12:11:46;0.95;;;0.85;;
50968;SDS011;36982;51.474;7.228;2022-08-01T12:14:16;0.73;;;0.73;;
50968;SDS011;36982;51.474;7.228;2022-08-01T12:16:52;1.45;;;1.10;;
50968;SDS011;36982;51.474;7.228;2022-08-01T12:19:22;1.35;;;0.80;;
50968;SDS011;36982;51.474;7.228;2022-08-01T12:22:05;2.53;;;0.80;;
50968;SDS011;36982;51.474;7.228;2022-08-01T12:24:32;0.90;;;0.90;;
50968;SDS011;36982;51.474;7.228;2022-08-01T12:26:59;1.85;;;1.00;;
50968;SDS011;36982;51.474;7.228;2022-08-01T12:29:35;0.80;;;0.80;;
50968;SDS011;36982;51.474;7.228;2022-08-01T12:32:02;1.55;;;1.20;;
50968;SDS011;36982;51.474;7.228;2022-08-01T12:34:29;1.10;;;1.00;;
50968;SDS011;36982;51.474;7.228;2022-08-01T12:36:58;1.20;;;1.10;;
50968;SDS011;36982;51.474;7.228;2022-08-01T12:39:34;1.15;;;1.05;;
50968;SDS011;36982;51.474;7.228;2022-08-01T12:42:00;1.35;;;1.00;;
50968;SDS011;36982;51.474;7.228;2022-08-01T12:44:27;1.25;;;1.00;;
50968;SDS011;36982;51.474;7.228;2022-08-01T12:46:55;1.08;;;1.00;;
50968;SDS011;36982;51.474;7.228;2022-08-01T12:49:21;0.85;;;0.80;;
50968;SDS011;36982;51.474;7.228;2022-08-01T12:51:48;1.83;;;1.08;;
50968;SDS011;36982;51.474;7.228;2022-08-01T12:54:14;0.90;;;0.90;;
50968;SDS011;36982;51.474;7.228;2022-08-01T12:56:40;1.00;;;0.80;;
50968;SDS011;36982;51.474;7.228;2022-08-01T12:59:25;0.70;;;0.70;;
50968;SDS011;36982;51.474;7.228;2022-08-01T13:01:55;0.70;;;0.70;;
50968;SDS011;36982;51.474;7.228;2022-08-01T13:04:21;1.08;;;0.80;;
50968;SDS011;36982;51.474;7.228;2022-08-01T13:06:48;0.85;;;0.85;;
50968;SDS011;36982;51.474;7.228;2022-08-01T13:09:17;0.77;;;0.77;;
50968;SDS011;36982;51.474;7.228;2022-08-01T13:11:44;0.85;;;0.77;;
50968;SDS011;36982;51.474;7.228;2022-08-01T13:14:10;1.45;;;0.80;;
50968;SDS011;36982;51.474;7.228;2022-08-01T13:16:52;1.05;;;0.95;;
50968;SDS011;36982;51.474;7.228;2022-08-01T13:19:17;2.22;;;0.93;;
50968;SDS011;36982;51.474;7.228;2022-08-01T13:21:53;0.80;;;0.80;;
50968;SDS011;36982;51.474;7.228;2022-08-01T13:24:31;3.00;;;1.40;;
50968;SDS011;36982;51.474;7.228;2022-08-01T13:26:58;0.80;;;0.80;;
50968;SDS011;36982;51.474;7.228;2022-08-01T13:31:55;1.30;;;1.05;;
50968;SDS011;36982;51.474;7.228;2022-08-01T13:34:31;1.58;;;0.80;;
50968;SDS011;36982;51.474;7.228;2022-08-01T13:36:58;1.40;;;1.10;;
50968;SDS011;36982;51.474;7.228;2022-08-01T13:39:24;1.23;;;0.90;;
50968;SDS011;36982;51.474;7.228;2022-08-01T13:42:08;1.12;;;1.00;;
50968;SDS011;36982;51.474;7.228;2022-08-01T13:44:38;1.50;;;1.10;;
50968;SDS011;36982;51.474;7.228;2022-08-01T13:47:04;1.50;;;1.27;;
50968;SDS011;36982;51.474;7.228;2022-08-01T13:49:31;2.60;;;0.93;;
50968;SDS011;36982;51.474;7.228;2022-08-01T13:51:57;1.30;;;1.20;;
50968;SDS011;36982;51.474;7.228;2022-08-01T13:54:23;1.20;;;1.10;;
50968;SDS011;36982;51.474;7.228;2022-08-01T13:56:49;2.03;;;1.35;;
50968;SDS011;36982;51.474;7.228;2022-08-01T13:59:15;1.58;;;1.20;;
50968;SDS011;36982;51.474;7.228;2022-08-01T14:01:41;2.92;;;1.48;;
50968;SDS011;36982;51.474;7.228;2022-08-01T14:04:07;1.23;;;1.12;;
50968;SDS011;36982;51.474;7.228;2022-08-01T14:06:32;1.40;;;1.30;;
50968;SDS011;36982;51.474;7.228;2022-08-01T14:08:59;1.42;;;1.33;;
50968;SDS011;36982;51.474;7.228;2022-08-01T14:11:26;1.30;;;1.20;;
50968;SDS011;36982;51.474;7.228;2022-08-01T14:13:52;1.48;;;1.37;;
50968;SDS011;36982;51.474;7.228;2022-08-01T14:16:17;2.03;;;1.30;;
50968;SDS011;36982;51.474;7.228;2022-08-01T14:18:43;1.35;;;1.08;;
50968;SDS011;36982;51.474;7.228;2022-08-01T14:21:09;1.58;;;1.23;;
50968;SDS011;36982;51.474;7.228;2022-08-01T14:23:34;1.40;;;1.25;;
50968;SDS011;36982;51.474;7.228;2022-08-01T14:26:00;1.48;;;1.37;;
50968;SDS011;36982;51.474;7.228;2022-08-01T14:28:25;2.15;;;1.40;;
50968;SDS011;36982;51.474;7.228;2022-08-01T14:30:52;1.30;;;1.20;;
50968;SDS011;36982;51.474;7.228;2022-08-01T14:33:20;1.87;;;1.50;;
50968;SDS011;36982;51.474;7.228;2022-08-01T14:35:46;1.33;;;1.10;;
50968;SDS011;36982;51.474;7.228;2022-08-01T14:38:12;1.40;;;1.30;;
50968;SDS011;36982;51.474;7.228;2022-08-01T14:40:38;1.95;;;1.27;;
50968;SDS011;36982;51.474;7.228;2022-08-01T14:43:05;1.20;;;1.08;;
50968;SDS011;36982;51.474;7.228;2022-08-01T14:45:31;1.75;;;1.10;;
50968;SDS011;36982;51.474;7.228;2022-08-01T14:47:57;2.17;;;1.48;;
50968;SDS011;36982;51.474;7.228;2022-08-01T14:50:23;1.52;;;1.35;;
50968;SDS011;36982;51.474;7.228;2022-08-01T14:52:51;2.70;;;1.10;;
50968;SDS011;36982;51.474;7.228;2022-08-01T14:55:18;1.27;;;1.15;;
50968;SDS011;36982;51.474;7.228;2022-08-01T14:57:48;1.90;;;1.40;;
50968;SDS011;36982;51.474;7.228;2022-08-01T15:00:14;3.40;;;1.35;;
50968;SDS011;36982;51.474;7.228;2022-08-01T15:02:40;2.40;;;1.50;;
50968;SDS011;36982;51.474;7.228;2022-08-01T15:05:06;2.80;;;1.20;;
50968;SDS011;36982;51.474;7.228;2022-08-01T15:07:32;1.73;;;1.42;;
50968;SDS011;36982;51.474;7.228;2022-08-01T15:09:58;1.95;;;1.80;;
50968;SDS011;36982;51.474;7.228;2022-08-01T15:12:24;3.25;;;1.65;;
50968;SDS011;36982;51.474;7.228;2022-08-01T15:14:50;1.42;;;1.33;;
50968;SDS011;36982;51.474;7.228;2022-08-01T15:17:19;1.95;;;1.50;;
50968;SDS011;36982;51.474;7.228;2022-08-01T15:19:47;4.70;;;1.42;;
50968;SDS011;36982;51.474;7.228;2022-08-01T15:22:14;2.37;;;1.80;;
50968;SDS011;36982;51.474;7.228;2022-08-01T15:24:41;1.58;;;1.40;;
50968;SDS011;36982;51.474;7.228;2022-08-01T15:27:07;1.87;;;1.40;;
50968;SDS011;36982;51.474;7.228;2022-08-01T15:29:33;2.05;;;1.50;;
50968;SDS011;36982;51.474;7.228;2022-08-01T15:31:59;1.67;;;1.40;;
50968;SDS011;36982;51.474;7.228;2022-08-01T15:34:29;2.55;;;1.62;;
50968;SDS011;36982;51.474;7.228;2022-08-01T15:36:55;2.15;;;1.45;;
50968;SDS011;36982;51.474;7.228;2022-08-01T15:39:21;2.08;;;1.62;;